Time;durP1;ratioP1;P1;durP2;ratioP2;P2;SDS_P1;SDS_P2;PMS_P1;PMS_P2;Temp;Humidity;BMP_temperature;BMP_pressure;BME280_temperature;BME280_humidity;BME280_pressure;Samples;Min_cycle;Max_cycle;Signal;HPM_P1;HPM_P2
2023/09/25 00:00:27;;;;;;;2.17;2.08;;;;;;;;;;5009280;28;20240;-85
2023/09/25 00:02:54;;;;;;;2.28;1.90;;;;;;;;;;5009717;28;20280;-85
2023/09/25 00:05:23;;;;;;;3.88;2.15;;;;;;;;;;5008720;28;20662;-86
2023/09/25 00:07:50;;;;;;;2.65;2.42;;;;;;;;;;5009455;28;20212;-86
2023/09/25 00:10:20;;;;;;;6.15;3.20;;;;;;;;;;5016461;28;20279;-85
2023/09/25 00:12:47;;;;;;;2.25;2.08;;;;;;;;;;5027755;28;20231;-85
2023/09/25 00:15:14;;;;;;;2.33;2.22;;;;;;;;;;5028464;28;20318;-85
2023/09/25 00:17:42;;;;;;;2.50;2.33;;;;;;;;;;5030159;28;20200;-85
2023/09/25 00:20:10;;;;;;;2.60;2.28;;;;;;;;;;5042876;28;20301;-86
2023/09/25 00:22:42;;;;;;;4.53;2.35;;;;;;;;;;5050356;28;20250;-85
2023/09/25 00:25:09;;;;;;;2.33;2.22;;;;;;;;;;5054279;28;20215;-85
2023/09/25 00:27:36;;;;;;;3.63;2.00;;;;;;;;;;5053119;28;20225;-86
2023/09/25 00:30:06;;;;;;;2.33;2.22;;;;;;;;;;5049454;28;20195;-85
2023/09/25 00:32:33;;;;;;;3.38;2.15;;;;;;;;;;5049402;28;20212;-84
2023/09/25 00:35:00;;;;;;;2.40;1.88;;;;;;;;;;5048774;28;20578;-84
2023/09/25 00:37:27;;;;;;;3.65;2.58;;;;;;;;;;5049033;28;20199;-84
2023/09/25 00:39:55;;;;;;;2.08;2.00;;;;;;;;;;5048897;28;20659;-82
2023/09/25 00:42:22;;;;;;;2.78;2.20;;;;;;;;;;5047958;28;20200;-84
2023/09/25 00:44:49;;;;;;;2.33;2.10;;;;;;;;;;5048992;28;20207;-83
2023/09/25 00:47:16;;;;;;;2.40;2.20;;;;;;;;;;5049813;28;20677;-84
2023/09/25 00:49:42;;;;;;;2.42;1.92;;;;;;;;;;5049297;28;20202;-84
2023/09/25 00:52:12;;;;;;;3.17;2.33;;;;;;;;;;5049531;28;20215;-85
2023/09/25 00:54:38;;;;;;;3.28;2.60;;;;;;;;;;5049156;28;20226;-83
2023/09/25 00:57:07;;;;;;;2.15;1.95;;;;;;;;;;5048441;28;20765;-85
2023/09/25 00:59:34;;;;;;;2.33;2.17;;;;;;;;;;5048716;28;20203;-83
2023/09/25 01:02:03;;;;;;;5.53;2.28;;;;;;;;;;5048862;28;20226;-84
2023/09/25 01:04:30;;;;;;;4.95;2.08;;;;;;;;;;5049120;28;20753;-85
2023/09/25 01:06:58;;;;;;;2.55;2.45;;;;;;;;;;5051809;28;20199;-83
2023/09/25 01:09:26;;;;;;;2.22;2.10;;;;;;;;;;5052471;28;20191;-84
2023/09/25 01:11:53;;;;;;;2.65;2.45;;;;;;;;;;5052239;28;20208;-85
2023/09/25 01:14:22;;;;;;;9.73;2.70;;;;;;;;;;5053012;28;20234;-85
2023/09/25 01:16:48;;;;;;;3.10;2.30;;;;;;;;;;5052044;28;20199;-87
2023/09/25 01:19:15;;;;;;;2.05;1.83;;;;;;;;;;5051842;28;20262;-83
2023/09/25 01:21:46;;;;;;;4.88;2.28;;;;;;;;;;5053167;28;20223;-84
2023/09/25 01:24:13;;;;;;;2.22;2.13;;;;;;;;;;5051994;28;20610;-86
2023/09/25 01:26:40;;;;;;;5.45;2.08;;;;;;;;;;5051854;28;20203;-86
2023/09/25 01:29:07;;;;;;;3.47;2.13;;;;;;;;;;5053023;28;20199;-85
2023/09/25 01:31:34;;;;;;;3.03;2.13;;;;;;;;;;5053656;28;20674;-84
2023/09/25 01:34:01;;;;;;;4.22;2.28;;;;;;;;;;5052606;28;20203;-85
2023/09/25 01:36:28;;;;;;;1.92;1.83;;;;;;;;;;5052833;28;20195;-86
2023/09/25 01:38:56;;;;;;;3.28;2.03;;;;;;;;;;5051861;28;20672;-83
2023/09/25 01:41:23;;;;;;;2.00;1.90;;;;;;;;;;5051068;28;20267;-83
2023/09/25 01:43:51;;;;;;;3.45;2.05;;;;;;;;;;5051993;28;20207;-84
2023/09/25 01:46:18;;;;;;;4.95;2.47;;;;;;;;;;5051569;28;20685;-83
2023/09/25 01:48:45;;;;;;;1.80;1.70;;;;;;;;;;5051916;28;20240;-83
2023/09/25 01:51:15;;;;;;;1.83;1.73;;;;;;;;;;5052133;28;20199;-82
2023/09/25 01:53:45;;;;;;;2.85;2.60;;;;;;;;;;5051930;28;20203;-83
2023/09/25 01:56:14;;;;;;;11.85;2.40;;;;;;;;;;5053137;28;20206;-85
2023/09/25 01:58:43;;;;;;;2.55;1.98;;;;;;;;;;5062713;28;20195;-85
2023/09/25 02:01:10;;;;;;;4.05;2.33;;;;;;;;;;5072290;28;20219;-85
2023/09/25 02:03:37;;;;;;;1.73;1.60;;;;;;;;;;5067654;28;20620;-82
2023/09/25 02:06:05;;;;;;;2.35;2.15;;;;;;;;;;5062189;28;20527;-84
2023/09/25 02:08:31;;;;;;;3.70;1.60;;;;;;;;;;5062057;28;20209;-83
2023/09/25 02:10:58;;;;;;;2.25;2.15;;;;;;;;;;5062432;28;20196;-83
2023/09/25 02:13:29;;;;;;;2.70;2.45;;;;;;;;;;5061515;28;20222;-84
2023/09/25 02:15:56;;;;;;;2.08;1.98;;;;;;;;;;5052757;28;20300;-84
2023/09/25 02:18:23;;;;;;;4.35;2.10;;;;;;;;;;5050532;28;20647;-84
2023/09/25 02:20:50;;;;;;;2.13;1.92;;;;;;;;;;5050492;28;20239;-82
2023/09/25 02:23:17;;;;;;;2.45;2.22;;;;;;;;;;5049719;28;20211;-82
2023/09/25 02:25:44;;;;;;;3.83;2.05;;;;;;;;;;5050374;28;20213;-86
2023/09/25 02:28:11;;;;;;;2.83;1.75;;;;;;;;;;5050957;28;20196;-86
2023/09/25 02:30:40;;;;;;;3.22;2.17;;;;;;;;;;5051118;28;20200;-86
2023/09/25 02:33:06;;;;;;;6.40;2.00;;;;;;;;;;5050308;28;20292;-87
2023/09/25 02:35:36;;;;;;;3.72;2.00;;;;;;;;;;5051630;28;20223;-86
2023/09/25 02:38:04;;;;;;;2.45;2.35;;;;;;;;;;5047436;28;20214;-84
2023/09/25 02:40:33;;;;;;;2.15;2.05;;;;;;;;;;5050168;28;20265;-85
2023/09/25 02:43:00;;;;;;;4.60;2.00;;;;;;;;;;5033721;28;20197;-84
2023/09/25 02:45:27;;;;;;;1.90;1.80;;;;;;;;;;5037126;28;20211;-86
2023/09/25 02:47:55;;;;;;;2.97;1.73;;;;;;;;;;5033817;28;20270;-82
2023/09/25 02:50:22;;;;;;;5.75;1.80;;;;;;;;;;5030444;28;20196;-82
2023/09/25 02:52:49;;;;;;;3.60;1.85;;;;;;;;;;5030083;28;20637;-82
2023/09/25 02:55:16;;;;;;;4.43;2.50;;;;;;;;;;5029478;28;20208;-83
2023/09/25 02:57:43;;;;;;;2.30;2.08;;;;;;;;;;5030385;28;20694;-83
2023/09/25 03:00:11;;;;;;;1.88;1.70;;;;;;;;;;5029379;28;20199;-83
2023/09/25 03:02:38;;;;;;;2.30;2.15;;;;;;;;;;5029808;28;20746;-82
2023/09/25 03:05:07;;;;;;;2.85;2.60;;;;;;;;;;5030294;28;20634;-83
2023/09/25 03:07:34;;;;;;;2.35;2.25;;;;;;;;;;5030480;28;20269;-84
2023/09/25 03:10:01;;;;;;;5.93;2.65;;;;;;;;;;5031264;28;20285;-82
2023/09/25 03:12:29;;;;;;;2.50;2.40;;;;;;;;;;5030815;28;20246;-83
2023/09/25 03:14:56;;;;;;;2.97;2.60;;;;;;;;;;5030009;28;20230;-83
2023/09/25 03:17:24;;;;;;;4.60;2.75;;;;;;;;;;5030361;28;20215;-87
2023/09/25 03:19:51;;;;;;;2.63;2.53;;;;;;;;;;5043574;28;21316;-82
2023/09/25 03:22:20;;;;;;;3.05;2.75;;;;;;;;;;5055493;28;20297;-83
2023/09/25 03:24:48;;;;;;;4.15;2.88;;;;;;;;;;5037845;28;20559;-83
2023/09/25 03:27:16;;;;;;;2.90;2.35;;;;;;;;;;5030033;28;21057;-82
2023/09/25 03:29:42;;;;;;;3.38;2.70;;;;;;;;;;5030264;28;20900;-82
2023/09/25 03:32:09;;;;;;;4.35;2.60;;;;;;;;;;5039100;28;20202;-82
2023/09/25 03:34:36;;;;;;;2.28;2.17;;;;;;;;;;5040947;28;20223;-81
2023/09/25 03:37:02;;;;;;;4.25;2.58;;;;;;;;;;5029563;28;20222;-84
2023/09/25 03:39:31;;;;;;;2.80;2.60;;;;;;;;;;5030217;28;20196;-81
2023/09/25 03:41:57;;;;;;;2.60;2.40;;;;;;;;;;5029327;28;20321;-82
2023/09/25 03:44:25;;;;;;;3.85;2.95;;;;;;;;;;5030021;28;20231;-82
2023/09/25 03:46:51;;;;;;;3.15;2.65;;;;;;;;;;5029751;28;20200;-81
2023/09/25 03:49:18;;;;;;;4.15;3.08;;;;;;;;;;5028148;28;20248;-84
2023/09/25 03:51:46;;;;;;;3.63;3.33;;;;;;;;;;5029666;28;20571;-82
2023/09/25 03:54:13;;;;;;;5.65;4.03;;;;;;;;;;5028471;28;20222;-82
2023/09/25 03:56:41;;;;;;;5.68;3.67;;;;;;;;;;5029487;28;20209;-83
2023/09/25 03:59:08;;;;;;;8.35;4.28;;;;;;;;;;5029163;28;20674;-83
2023/09/25 04:01:35;;;;;;;5.20;4.70;;;;;;;;;;5027815;28;20235;-83
2023/09/25 04:04:02;;;;;;;4.47;3.88;;;;;;;;;;5028210;28;20295;-83
2023/09/25 04:06:29;;;;;;;7.25;5.43;;;;;;;;;;5028957;28;20289;-83
2023/09/25 04:08:55;;;;;;;8.40;4.50;;;;;;;;;;5028984;28;20210;-84
2023/09/25 04:11:23;;;;;;;7.00;4.43;;;;;;;;;;5028807;28;20211;-83
2023/09/25 04:13:51;;;;;;;10.55;4.95;;;;;;;;;;5029236;28;20200;-85
2023/09/25 04:16:18;;;;;;;6.78;5.30;;;;;;;;;;5029218;28;20227;-83
2023/09/25 04:18:45;;;;;;;7.15;4.97;;;;;;;;;;5028174;28;20196;-83
2023/09/25 04:21:14;;;;;;;7.85;5.05;;;;;;;;;;5028664;28;20203;-82
2023/09/25 04:23:41;;;;;;;12.23;5.93;;;;;;;;;;5027984;28;20326;-82
2023/09/25 04:26:11;;;;;;;6.68;5.43;;;;;;;;;;5028668;28;20201;-82
2023/09/25 04:28:38;;;;;;;8.50;5.40;;;;;;;;;;5027905;28;20203;-83
2023/09/25 04:31:06;;;;;;;8.77;5.88;;;;;;;;;;5028047;28;20301;-85
2023/09/25 04:33:33;;;;;;;6.53;5.25;;;;;;;;;;5027907;28;20636;-84
2023/09/25 04:36:01;;;;;;;7.40;5.43;;;;;;;;;;5015763;28;20266;-84
2023/09/25 04:38:28;;;;;;;15.45;6.03;;;;;;;;;;5028110;28;20220;-83
2023/09/25 04:40:56;;;;;;;8.05;5.30;;;;;;;;;;5029155;28;20208;-82
2023/09/25 04:43:23;;;;;;;17.05;6.70;;;;;;;;;;5032716;28;20359;-85
2023/09/25 04:45:52;;;;;;;9.70;6.13;;;;;;;;;;5020249;28;20587;-80
2023/09/25 04:48:20;;;;;;;8.65;6.30;;;;;;;;;;5031949;28;20205;-83
2023/09/25 04:50:48;;;;;;;16.48;6.10;;;;;;;;;;5032948;28;20198;-84
2023/09/25 04:53:15;;;;;;;9.27;5.25;;;;;;;;;;5031431;28;20208;-83
2023/09/25 04:55:42;;;;;;;9.25;5.75;;;;;;;;;;5033045;28;20472;-84
2023/09/25 04:58:09;;;;;;;8.88;6.13;;;;;;;;;;5032182;28;20207;-85
2023/09/25 05:00:36;;;;;;;10.55;5.55;;;;;;;;;;5031880;28;20203;-85
2023/09/25 05:03:02;;;;;;;11.60;6.38;;;;;;;;;;5031482;28;20233;-82
2023/09/25 05:05:31;;;;;;;11.00;6.00;;;;;;;;;;5032718;28;20634;-84
2023/09/25 05:07:58;;;;;;;10.25;6.15;;;;;;;;;;5032453;28;20204;-84
2023/09/25 05:10:26;;;;;;;7.78;6.30;;;;;;;;;;5033083;28;20310;-84
2023/09/25 05:12:54;;;;;;;8.45;5.40;;;;;;;;;;5031607;28;20693;-83
2023/09/25 05:15:21;;;;;;;7.82;5.82;;;;;;;;;;5031461;28;20246;-85
2023/09/25 05:17:49;;;;;;;11.10;5.40;;;;;;;;;;5031742;28;20218;-83
2023/09/25 05:20:18;;;;;;;9.18;5.45;;;;;;;;;;5040087;28;20236;-83
2023/09/25 05:22:47;;;;;;;12.20;5.18;;;;;;;;;;5031605;28;20280;-84
2023/09/25 05:25:14;;;;;;;9.15;5.38;;;;;;;;;;5013730;28;20205;-84
2023/09/25 05:27:42;;;;;;;11.80;6.40;;;;;;;;;;5011682;28;20208;-83
2023/09/25 05:30:11;;;;;;;16.10;6.20;;;;;;;;;;5012304;28;20204;-83
2023/09/25 05:32:38;;;;;;;16.52;5.32;;;;;;;;;;5013202;28;20201;-83
2023/09/25 05:35:05;;;;;;;6.57;5.13;;;;;;;;;;5011899;28;20628;-83
2023/09/25 05:37:33;;;;;;;9.27;5.20;;;;;;;;;;5012212;28;20383;-83
2023/09/25 05:40:01;;;;;;;6.20;4.78;;;;;;;;;;5012459;28;20211;-84
2023/09/25 05:42:29;;;;;;;6.45;5.35;;;;;;;;;;5012266;28;20314;-83
2023/09/25 05:44:55;;;;;;;8.15;4.53;;;;;;;;;;5011370;28;20208;-84
2023/09/25 05:47:23;;;;;;;6.45;5.00;;;;;;;;;;5019872;28;20598;-85
2023/09/25 05:49:50;;;;;;;7.85;5.07;;;;;;;;;;5042661;28;20211;-83
2023/09/25 05:52:17;;;;;;;7.40;4.95;;;;;;;;;;5042986;28;20531;-85
2023/09/25 05:54:47;;;;;;;4.57;4.13;;;;;;;;;;5039208;28;20592;-85
2023/09/25 05:57:15;;;;;;;5.93;5.38;;;;;;;;;;5038480;28;20293;-84
2023/09/25 05:59:45;;;;;;;6.93;5.07;;;;;;;;;;5038964;28;20240;-83
2023/09/25 06:02:12;;;;;;;6.78;4.45;;;;;;;;;;5043025;28;20314;-82
2023/09/25 06:04:39;;;;;;;7.75;5.07;;;;;;;;;;5031191;28;20199;-84
2023/09/25 06:07:06;;;;;;;6.30;5.03;;;;;;;;;;5030942;28;20198;-85
2023/09/25 06:09:34;;;;;;;6.18;4.40;;;;;;;;;;5031693;28;20671;-82
2023/09/25 06:12:01;;;;;;;4.28;3.88;;;;;;;;;;5031013;28;20213;-83
2023/09/25 06:14:29;;;;;;;6.85;5.50;;;;;;;;;;5031083;28;20227;-84
2023/09/25 06:16:58;;;;;;;12.05;6.13;;;;;;;;;;5032310;28;20216;-85
2023/09/25 06:19:26;;;;;;;10.63;6.57;;;;;;;;;;5038471;28;20683;-87
2023/09/25 06:21:54;;;;;;;8.40;5.30;;;;;;;;;;5057435;28;20200;-85
2023/09/25 06:24:21;;;;;;;5.97;4.90;;;;;;;;;;5054064;28;20261;-87
2023/09/25 06:26:49;;;;;;;9.57;6.07;;;;;;;;;;5051619;28;20218;-88
2023/09/25 06:29:21;;;;;;;8.85;6.03;;;;;;;;;;5050105;28;20207;-86
2023/09/25 06:31:50;;;;;;;6.40;5.47;;;;;;;;;;5050888;28;20206;-87
2023/09/25 06:34:17;;;;;;;7.60;5.22;;;;;;;;;;5050307;28;20250;-84
2023/09/25 06:36:44;;;;;;;8.20;5.40;;;;;;;;;;5050797;28;20254;-86
2023/09/25 06:39:12;;;;;;;5.72;5.03;;;;;;;;;;5050541;28;20282;-84
2023/09/25 06:41:43;;;;;;;5.95;4.75;;;;;;;;;;5051405;28;20203;-86
2023/09/25 06:44:09;;;;;;;6.90;5.57;;;;;;;;;;5050718;28;20299;-85
2023/09/25 06:46:38;;;;;;;10.55;5.35;;;;;;;;;;5051035;28;20297;-85
2023/09/25 06:49:07;;;;;;;6.90;4.93;;;;;;;;;;5050699;28;20215;-86
2023/09/25 06:51:35;;;;;;;7.90;5.15;;;;;;;;;;5049320;28;20818;-85
2023/09/25 06:54:04;;;;;;;9.57;6.25;;;;;;;;;;5049870;28;20203;-86
2023/09/25 06:56:32;;;;;;;5.75;4.82;;;;;;;;;;5051307;28;20218;-84
2023/09/25 06:59:02;;;;;;;6.22;5.57;;;;;;;;;;5050819;28;20215;-86
2023/09/25 07:01:33;;;;;;;9.75;4.78;;;;;;;;;;5050022;28;20291;-87
2023/09/25 07:04:03;;;;;;;8.05;6.70;;;;;;;;;;5049004;28;20234;-84
2023/09/25 07:06:33;;;;;;;11.32;6.20;;;;;;;;;;5049869;28;20211;-86
2023/09/25 07:09:02;;;;;;;6.43;5.35;;;;;;;;;;5051281;28;20226;-86
2023/09/25 07:11:33;;;;;;;9.20;5.63;;;;;;;;;;5030705;28;20218;-86
2023/09/25 07:14:03;;;;;;;8.45;5.40;;;;;;;;;;5032316;28;20299;-84
2023/09/25 07:16:35;;;;;;;5.95;5.35;;;;;;;;;;5031013;28;20208;-86
2023/09/25 07:19:01;;;;;;;10.27;6.47;;;;;;;;;;5026700;28;20251;-85
2023/09/25 07:21:28;;;;;;;10.35;5.85;;;;;;;;;;5010541;28;20774;-86
2023/09/25 07:23:57;;;;;;;10.10;5.03;;;;;;;;;;5013162;28;20228;-83
2023/09/25 07:26:25;;;;;;;8.43;6.15;;;;;;;;;;5028968;28;20416;-83
2023/09/25 07:28:55;;;;;;;7.15;5.88;;;;;;;;;;5029363;28;20625;-85
2023/09/25 07:31:24;;;;;;;9.93;5.68;;;;;;;;;;5030091;28;20236;-85
2023/09/25 07:33:55;;;;;;;9.52;5.43;;;;;;;;;;5031156;28;20340;-85
2023/09/25 07:36:24;;;;;;;6.90;5.97;;;;;;;;;;5041401;28;20239;-85
2023/09/25 07:38:53;;;;;;;8.80;7.05;;;;;;;;;;5052109;28;20246;-85
2023/09/25 07:41:25;;;;;;;8.68;5.85;;;;;;;;;;5052045;28;20220;-86
2023/09/25 07:43:54;;;;;;;8.75;6.40;;;;;;;;;;5051134;28;20294;-85
2023/09/25 07:46:21;;;;;;;7.18;5.88;;;;;;;;;;5051448;28;20247;-85
2023/09/25 07:48:49;;;;;;;5.45;4.93;;;;;;;;;;5051649;28;20224;-86
2023/09/25 07:51:15;;;;;;;10.23;5.88;;;;;;;;;;5049799;28;20228;-85
2023/09/25 07:53:45;;;;;;;8.27;6.95;;;;;;;;;;5049078;28;20228;-87
2023/09/25 07:56:13;;;;;;;6.22;5.18;;;;;;;;;;5034258;28;20232;-85
2023/09/25 07:58:41;;;;;;;6.47;5.00;;;;;;;;;;5026690;28;20614;-83
2023/09/25 08:01:08;;;;;;;8.02;6.00;;;;;;;;;;5027076;28;20315;-85
2023/09/25 08:03:37;;;;;;;8.18;6.07;;;;;;;;;;5026972;28;20267;-87
2023/09/25 08:06:05;;;;;;;10.57;5.57;;;;;;;;;;5028465;28;20833;-86
2023/09/25 08:08:33;;;;;;;7.03;5.78;;;;;;;;;;5034223;28;20247;-86
2023/09/25 08:11:01;;;;;;;7.88;4.65;;;;;;;;;;5031922;28;20278;-85
2023/09/25 08:13:30;;;;;;;4.53;4.22;;;;;;;;;;5028115;28;20226;-84
2023/09/25 08:16:09;;;;;;;5.43;4.85;;;;;;;;;;5027481;28;20235;-85
2023/09/25 08:18:37;;;;;;;5.13;4.72;;;;;;;;;;5026256;28;20302;-88
2023/09/25 08:21:04;;;;;;;4.65;3.97;;;;;;;;;;5027590;28;20239;-86
2023/09/25 08:23:32;;;;;;;5.10;4.47;;;;;;;;;;5026112;28;20231;-84
2023/09/25 08:25:59;;;;;;;5.75;5.10;;;;;;;;;;5027685;28;20540;-83
2023/09/25 08:28:27;;;;;;;8.80;5.22;;;;;;;;;;5026267;28;20713;-86
2023/09/25 08:30:54;;;;;;;4.47;4.10;;;;;;;;;;5026549;28;20242;-84
2023/09/25 08:33:24;;;;;;;8.57;4.28;;;;;;;;;;5027275;28;20223;-85
2023/09/25 08:35:52;;;;;;;5.70;4.15;;;;;;;;;;5027432;28;20231;-83
2023/09/25 08:38:18;;;;;;;5.68;3.63;;;;;;;;;;5025999;28;20224;-84
2023/09/25 08:40:48;;;;;;;6.00;3.95;;;;;;;;;;5027882;28;20289;-84
2023/09/25 08:43:15;;;;;;;4.35;3.35;;;;;;;;;;5025995;28;20258;-83
2023/09/25 08:45:43;;;;;;;3.58;3.28;;;;;;;;;;5026736;28;20228;-83
2023/09/25 08:48:11;;;;;;;2.90;2.78;;;;;;;;;;5026853;28;20228;-84
2023/09/25 08:50:40;;;;;;;4.18;3.15;;;;;;;;;;5026057;28;20220;-83
2023/09/25 08:53:08;;;;;;;4.40;3.13;;;;;;;;;;5026750;28;20307;-83
2023/09/25 08:55:35;;;;;;;3.88;2.70;;;;;;;;;;5027031;28;20263;-83
2023/09/25 08:58:02;;;;;;;3.28;2.55;;;;;;;;;;5026445;28;20219;-85
2023/09/25 09:00:30;;;;;;;4.93;3.30;;;;;;;;;;5027773;28;20234;-85
2023/09/25 09:02:57;;;;;;;2.72;2.53;;;;;;;;;;5026573;28;20736;-85
2023/09/25 09:05:26;;;;;;;3.83;3.15;;;;;;;;;;5026246;28;20220;-85
2023/09/25 09:08:00;;;;;;;4.47;3.72;;;;;;;;;;5027099;28;20232;-85
2023/09/25 09:10:31;;;;;;;3.53;3.25;;;;;;;;;;5027693;28;20304;-86
2023/09/25 09:12:58;;;;;;;2.45;2.25;;;;;;;;;;5025723;28;20299;-83
2023/09/25 09:15:26;;;;;;;8.85;3.20;;;;;;;;;;5026845;28;20228;-85
2023/09/25 09:17:54;;;;;;;3.97;2.60;;;;;;;;;;5026604;28;20298;-86
2023/09/25 09:20:21;;;;;;;2.72;2.53;;;;;;;;;;5039610;28;20294;-86
2023/09/25 09:22:52;;;;;;;2.47;2.38;;;;;;;;;;5025534;28;20220;-85
2023/09/25 09:25:20;;;;;;;2.75;2.60;;;;;;;;;;5027095;28;20302;-85
2023/09/25 09:27:48;;;;;;;6.78;2.55;;;;;;;;;;5028702;28;20723;-84
2023/09/25 09:30:25;;;;;;;7.15;3.40;;;;;;;;;;5030337;28;20274;-84
2023/09/25 09:32:52;;;;;;;2.63;2.42;;;;;;;;;;5029721;28;20227;-84
2023/09/25 09:35:24;;;;;;;2.58;2.35;;;;;;;;;;5029105;28;20239;-84
2023/09/25 09:37:52;;;;;;;2.72;2.63;;;;;;;;;;5029830;28;20228;-84
2023/09/25 09:40:21;;;;;;;2.65;2.40;;;;;;;;;;5030108;28;20231;-86
2023/09/25 09:42:50;;;;;;;2.85;2.28;;;;;;;;;;5029876;28;20235;-84
2023/09/25 09:45:16;;;;;;;3.67;2.28;;;;;;;;;;5030408;28;20228;-83
2023/09/25 09:47:45;;;;;;;2.47;2.25;;;;;;;;;;5030074;28;20216;-83
2023/09/25 09:50:13;;;;;;;2.53;2.42;;;;;;;;;;5030883;28;20646;-82
2023/09/25 09:52:41;;;;;;;3.60;2.97;;;;;;;;;;5029415;28;20228;-84
2023/09/25 09:55:10;;;;;;;2.45;2.05;;;;;;;;;;5029902;28;20796;-82
2023/09/25 09:57:39;;;;;;;3.08;2.53;;;;;;;;;;5030248;28;20219;-84
2023/09/25 10:00:07;;;;;;;3.08;2.67;;;;;;;;;;5029550;28;20316;-84
2023/09/25 10:02:34;;;;;;;2.85;2.75;;;;;;;;;;5029803;28;20302;-84
2023/09/25 10:05:04;;;;;;;2.33;2.22;;;;;;;;;;5029531;28;20240;-83
2023/09/25 10:07:31;;;;;;;8.18;3.05;;;;;;;;;;5028926;28;20236;-81
2023/09/25 10:09:59;;;;;;;2.33;2.20;;;;;;;;;;5029428;28;20775;-84
2023/09/25 10:12:40;;;;;;;2.40;2.30;;;;;;;;;;5029761;28;20220;-84
2023/09/25 10:15:09;;;;;;;2.50;2.30;;;;;;;;;;5027978;28;20661;-82
2023/09/25 10:17:39;;;;;;;5.40;2.40;;;;;;;;;;5029918;28;20307;-84
2023/09/25 10:20:27;;;;;;;1.80;1.77;;;;;;;;;;5043066;28;20263;-83
2023/09/25 10:22:54;;;;;;;2.65;2.50;;;;;;;;;;5050198;28;20273;-84
2023/09/25 10:25:22;;;;;;;2.53;2.25;;;;;;;;;;5050372;28;20207;-83
2023/09/25 10:27:53;;;;;;;2.38;2.28;;;;;;;;;;5050351;28;20415;-84
2023/09/25 10:30:23;;;;;;;3.80;2.35;;;;;;;;;;5050651;28;20265;-85
2023/09/25 10:32:53;;;;;;;2.80;2.60;;;;;;;;;;5049683;28;20246;-84
2023/09/25 10:35:40;;;;;;;2.45;2.25;;;;;;;;;;5050111;28;20204;-83
2023/09/25 10:38:09;;;;;;;4.43;2.78;;;;;;;;;;5050191;28;20242;-84
2023/09/25 10:40:37;;;;;;;2.03;1.90;;;;;;;;;;5049986;28;20192;-83
2023/09/25 10:43:05;;;;;;;2.47;2.38;;;;;;;;;;5049843;28;20206;-83
2023/09/25 10:45:34;;;;;;;2.47;2.30;;;;;;;;;;5050036;28;20195;-83
2023/09/25 10:48:00;;;;;;;2.35;2.25;;;;;;;;;;5048950;28;20549;-84
2023/09/25 10:50:30;;;;;;;2.33;2.22;;;;;;;;;;5050448;28;20463;-88
2023/09/25 10:52:59;;;;;;;3.92;2.28;;;;;;;;;;5050726;28;20757;-85
2023/09/25 10:55:32;;;;;;;2.05;1.95;;;;;;;;;;5051179;28;20280;-86
2023/09/25 10:57:59;;;;;;;2.30;2.10;;;;;;;;;;5050681;28;20192;-86
2023/09/25 11:00:28;;;;;;;3.55;2.22;;;;;;;;;;5050780;28;20207;-86
2023/09/25 11:02:56;;;;;;;2.72;2.45;;;;;;;;;;5050383;28;20573;-85
2023/09/25 11:05:24;;;;;;;2.72;2.47;;;;;;;;;;5051599;28;20593;-86
2023/09/25 11:07:51;;;;;;;3.58;2.55;;;;;;;;;;5051698;28;20200;-85
2023/09/25 11:10:18;;;;;;;3.50;2.47;;;;;;;;;;5050874;28;20694;-87
2023/09/25 11:12:49;;;;;;;11.88;2.28;;;;;;;;;;5050927;28;20569;-86
2023/09/25 11:15:19;;;;;;;2.08;1.98;;;;;;;;;;5051082;28;20314;-86
2023/09/25 11:17:48;;;;;;;2.60;2.40;;;;;;;;;;5049755;28;20200;-87
2023/09/25 11:20:19;;;;;;;2.63;2.53;;;;;;;;;;5050112;28;20302;-86
2023/09/25 11:22:48;;;;;;;2.80;2.08;;;;;;;;;;5050580;28;20188;-84
2023/09/25 11:25:15;;;;;;;2.70;2.50;;;;;;;;;;5049593;28;20746;-87
2023/09/25 11:27:53;;;;;;;2.22;2.03;;;;;;;;;;5055077;28;20356;-85
2023/09/25 11:30:20;;;;;;;5.88;2.92;;;;;;;;;;5052420;28;20202;-86
2023/09/25 11:32:49;;;;;;;1.90;1.80;;;;;;;;;;5049402;28;20719;-87
2023/09/25 11:35:18;;;;;;;2.72;2.42;;;;;;;;;;5049971;28;20721;-88
2023/09/25 11:37:55;;;;;;;2.20;2.10;;;;;;;;;;5050437;28;20269;-86
2023/09/25 11:40:22;;;;;;;2.55;2.45;;;;;;;;;;5049730;28;20224;-85
2023/09/25 11:42:53;;;;;;;2.95;2.72;;;;;;;;;;5050348;28;20253;-85
2023/09/25 11:45:20;;;;;;;2.38;2.10;;;;;;;;;;5049288;28;20234;-87
2023/09/25 11:47:50;;;;;;;2.30;2.20;;;;;;;;;;5049183;28;20199;-86
2023/09/25 11:50:18;;;;;;;6.30;2.83;;;;;;;;;;5049202;28;20205;-86
2023/09/25 11:52:46;;;;;;;2.97;2.72;;;;;;;;;;5048763;28;20305;-88
2023/09/25 11:55:14;;;;;;;3.95;3.58;;;;;;;;;;5049014;28;20200;-87
2023/09/25 11:57:42;;;;;;;5.88;3.42;;;;;;;;;;5050342;28;20200;-87
2023/09/25 12:00:10;;;;;;;10.95;5.45;;;;;;;;;;5049705;28;20315;-86
2023/09/25 12:02:37;;;;;;;5.35;3.95;;;;;;;;;;5050994;28;20256;-86
2023/09/25 12:05:06;;;;;;;3.88;3.58;;;;;;;;;;5061400;28;20269;-85
2023/09/25 12:07:36;;;;;;;4.03;3.72;;;;;;;;;;5057836;28;20199;-86
2023/09/25 12:10:04;;;;;;;4.05;3.60;;;;;;;;;;5050189;28;20199;-86
2023/09/25 12:12:31;;;;;;;4.05;3.60;;;;;;;;;;5050195;28;20195;-87
2023/09/25 12:15:02;;;;;;;8.63;4.40;;;;;;;;;;5049704;28;20306;-86
2023/09/25 12:17:30;;;;;;;9.35;3.78;;;;;;;;;;5049213;28;20288;-86
2023/09/25 12:19:57;;;;;;;5.20;4.30;;;;;;;;;;5049709;28;20719;-87
2023/09/25 12:22:26;;;;;;;4.13;3.67;;;;;;;;;;5051234;28;20208;-87
2023/09/25 12:24:53;;;;;;;3.45;3.25;;;;;;;;;;5048901;28;20235;-87
2023/09/25 12:27:20;;;;;;;3.97;3.67;;;;;;;;;;5049329;28;20222;-86
2023/09/25 12:29:48;;;;;;;13.63;3.83;;;;;;;;;;5049247;28;20974;-85
2023/09/25 12:32:16;;;;;;;7.35;4.10;;;;;;;;;;5050588;28;20217;-87
2023/09/25 12:34:43;;;;;;;4.65;4.25;;;;;;;;;;5052022;28;20214;-87
2023/09/25 12:37:11;;;;;;;4.63;3.92;;;;;;;;;;5052441;28;20207;-85
2023/09/25 12:39:40;;;;;;;4.57;4.18;;;;;;;;;;5049166;28;20225;-86
2023/09/25 12:42:07;;;;;;;4.45;4.22;;;;;;;;;;5049782;28;20342;-85
2023/09/25 12:44:36;;;;;;;6.78;4.13;;;;;;;;;;5052475;28;20230;-86
2023/09/25 12:47:04;;;;;;;4.93;3.97;;;;;;;;;;5050949;28;20685;-86
2023/09/25 12:49:34;;;;;;;4.93;4.57;;;;;;;;;;5035927;28;20262;-87
2023/09/25 12:52:01;;;;;;;11.20;5.53;;;;;;;;;;5048475;28;20234;-86
2023/09/25 12:54:29;;;;;;;4.28;3.90;;;;;;;;;;5048315;28;20195;-86
2023/09/25 12:56:58;;;;;;;7.00;4.85;;;;;;;;;;5048335;28;20226;-86
2023/09/25 12:59:26;;;;;;;7.30;4.78;;;;;;;;;;5048936;28;20269;-87
2023/09/25 13:01:54;;;;;;;5.72;4.28;;;;;;;;;;5049294;28;20231;-86
2023/09/25 13:04:21;;;;;;;6.38;4.43;;;;;;;;;;5052752;28;20231;-88
2023/09/25 13:06:50;;;;;;;5.57;4.53;;;;;;;;;;5051061;28;20199;-87
2023/09/25 13:09:17;;;;;;;4.13;3.85;;;;;;;;;;5054298;28;20566;-87
2023/09/25 13:11:45;;;;;;;4.93;4.43;;;;;;;;;;5056519;28;20206;-88
2023/09/25 13:14:14;;;;;;;4.97;4.15;;;;;;;;;;5052826;28;20330;-87
2023/09/25 13:16:42;;;;;;;4.82;4.43;;;;;;;;;;5053622;28;20207;-86
2023/09/25 13:19:09;;;;;;;5.25;4.43;;;;;;;;;;5049789;28;20228;-88
2023/09/25 13:21:37;;;;;;;7.30;4.85;;;;;;;;;;5033840;28;20679;-86
2023/09/25 13:24:04;;;;;;;4.55;4.00;;;;;;;;;;5033187;28;20220;-87
2023/09/25 13:26:32;;;;;;;6.68;4.13;;;;;;;;;;5039085;28;20204;-88
2023/09/25 13:29:00;;;;;;;5.72;4.22;;;;;;;;;;5036906;28;20204;-86
2023/09/25 13:31:29;;;;;;;6.93;4.65;;;;;;;;;;5035276;28;20196;-88
2023/09/25 13:33:56;;;;;;;4.38;3.97;;;;;;;;;;5033537;28;20204;-86
2023/09/25 13:36:25;;;;;;;4.95;4.55;;;;;;;;;;5032109;28;20220;-85
2023/09/25 13:38:54;;;;;;;4.05;3.75;;;;;;;;;;5032211;28;20282;-87
2023/09/25 13:41:21;;;;;;;4.50;3.85;;;;;;;;;;5032135;28;20246;-87
2023/09/25 13:43:48;;;;;;;5.30;3.95;;;;;;;;;;5031557;28;20756;-86
2023/09/25 13:46:15;;;;;;;5.32;3.47;;;;;;;;;;5031710;28;20220;-87
2023/09/25 13:48:44;;;;;;;4.43;4.13;;;;;;;;;;5032363;28;20212;-88
2023/09/25 13:51:15;;;;;;;8.50;4.10;;;;;;;;;;5032250;28;20220;-87
2023/09/25 13:53:42;;;;;;;4.68;4.25;;;;;;;;;;5031120;28;20571;-87
2023/09/25 13:56:15;;;;;;;6.00;3.35;;;;;;;;;;5032380;28;20679;-86
2023/09/25 13:58:43;;;;;;;4.05;3.75;;;;;;;;;;5032523;28;20196;-86
2023/09/25 14:01:12;;;;;;;3.92;3.55;;;;;;;;;;5032339;28;20284;-87
2023/09/25 14:03:39;;;;;;;4.03;3.53;;;;;;;;;;5032569;28;20216;-86
2023/09/25 14:06:09;;;;;;;3.50;3.30;;;;;;;;;;5033717;28;20738;-87
2023/09/25 14:08:37;;;;;;;5.72;3.50;;;;;;;;;;5033617;28;20227;-86
2023/09/25 14:11:06;;;;;;;4.30;3.60;;;;;;;;;;5031632;28;20208;-88
2023/09/25 14:13:34;;;;;;;5.10;3.53;;;;;;;;;;5032681;28;20386;-89
2023/09/25 14:16:02;;;;;;;4.03;3.50;;;;;;;;;;5034082;28;20220;-87
2023/09/25 14:18:29;;;;;;;3.92;3.72;;;;;;;;;;5034385;28;20200;-87
2023/09/25 14:20:56;;;;;;;5.45;3.17;;;;;;;;;;5033743;28;20220;-87
2023/09/25 14:23:25;;;;;;;8.20;3.88;;;;;;;;;;5033166;28;20231;-87
2023/09/25 14:25:53;;;;;;;4.45;4.15;;;;;;;;;;5034266;28;20251;-85
2023/09/25 14:28:20;;;;;;;3.72;3.33;;;;;;;;;;5034839;28;20270;-89
2023/09/25 14:30:48;;;;;;;3.47;3.17;;;;;;;;;;5032126;28;20196;-87
2023/09/25 14:33:16;;;;;;;5.65;3.67;;;;;;;;;;5032510;28;20262;-87
2023/09/25 14:35:43;;;;;;;3.88;3.60;;;;;;;;;;5033662;28;20204;-87
2023/09/25 14:38:11;;;;;;;4.05;3.75;;;;;;;;;;5031704;28;20645;-87
2023/09/25 14:40:39;;;;;;;3.63;3.38;;;;;;;;;;5032658;28;20541;-87
2023/09/25 14:43:07;;;;;;;4.15;3.45;;;;;;;;;;5031597;28;20204;-86
2023/09/25 14:45:36;;;;;;;3.45;3.17;;;;;;;;;;5031156;28;20235;-85
2023/09/25 14:48:04;;;;;;;5.90;3.33;;;;;;;;;;5032066;28;20201;-87